createdAt,value
2018-10-16T00:01:56.083Z,49.79
2018-10-16T00:04:24.851Z,48.98
2018-10-16T00:06:53.665Z,49.14
2018-10-16T00:09:22.285Z,49.26
2018-10-16T00:11:59.705Z,49.34
2018-10-16T00:14:28.494Z,49.64
2018-10-16T00:16:57.151Z,49.36
2018-10-16T00:19:25.978Z,50.18
2018-10-16T00:21:55.270Z,50.41
2018-10-16T00:24:24.001Z,50.16
2018-10-16T00:26:52.608Z,49.83
2018-10-16T00:29:21.831Z,50.67
2018-10-16T00:31:50.496Z,50.53
2018-10-16T00:34:19.038Z,50.39
2018-10-16T00:36:47.553Z,50.53
2018-10-16T00:39:17.076Z,50.32
2018-10-16T00:41:49.726Z,50.35
2018-10-16T00:44:18.341Z,50.24
2018-10-16T00:46:46.898Z,50.57
2018-10-16T00:49:15.512Z,50.35
2018-10-16T00:51:44.084Z,50.53
2018-10-16T00:54:12.655Z,50.88
2018-10-16T00:56:41.186Z,51.06
2018-10-16T00:59:09.673Z,51.37
2018-10-16T01:01:38.150Z,51.12
2018-10-16T01:04:07.823Z,51.33
2018-10-16T01:06:37.192Z,51.52
2018-10-16T01:09:13.015Z,51.10
2018-10-16T01:11:41.672Z,51.54
2018-10-16T01:14:10.341Z,51.27
2018-10-16T01:16:38.928Z,51.36
2018-10-16T01:19:07.399Z,51.17
2018-10-16T01:21:36.004Z,51.01
2018-10-16T01:24:04.667Z,51.07
2018-10-16T01:26:33.261Z,51.35
2018-10-16T01:29:01.880Z,51.22
2018-10-16T01:31:30.415Z,51.13
2018-10-16T01:33:59.043Z,50.96
2018-10-16T01:36:27.583Z,51.28
2018-10-16T01:38:56.107Z,51.42
2018-10-16T01:41:24.649Z,51.39
2018-10-16T01:43:53.274Z,51.58
2018-10-16T01:46:21.860Z,51.52
2018-10-16T01:48:50.453Z,51.29
2018-10-16T01:51:19.083Z,51.58
2018-10-16T01:53:47.631Z,51.77
2018-10-16T01:56:16.317Z,51.62
2018-10-16T01:58:44.884Z,51.41
2018-10-16T02:01:13.348Z,51.15
2018-10-16T02:03:41.893Z,51.62
2018-10-16T02:06:10.373Z,51.29
2018-10-16T02:08:38.972Z,51.28
2018-10-16T02:11:07.663Z,51.08
2018-10-16T02:13:36.362Z,51.21
2018-10-16T02:16:04.929Z,51.80
2018-10-16T02:18:33.545Z,51.09
2018-10-16T02:21:02.143Z,51.41
2018-10-16T02:23:30.744Z,51.63
2018-10-16T02:25:59.463Z,51.33
2018-10-16T02:28:28.089Z,51.10
2018-10-16T02:30:56.889Z,51.01
2018-10-16T02:33:25.561Z,51.14
2018-10-16T02:35:54.271Z,50.61
2018-10-16T02:38:23.119Z,50.84
2018-10-16T02:40:51.639Z,50.39
2018-10-16T02:43:20.200Z,50.83
2018-10-16T02:45:48.817Z,50.71
2018-10-16T02:48:18.324Z,50.45
2018-10-16T02:50:46.859Z,50.17
2018-10-16T02:53:15.434Z,50.39
2018-10-16T02:55:44.024Z,50.76
2018-10-16T02:58:12.644Z,51.13
2018-10-16T03:00:41.238Z,50.77
2018-10-16T03:03:09.788Z,50.96
2018-10-16T03:05:38.440Z,50.12
2018-10-16T03:08:07.252Z,50.10
2018-10-16T03:10:35.836Z,50.17
2018-10-16T03:13:04.470Z,50.76
2018-10-16T03:15:33.161Z,50.32
2018-10-16T03:18:01.889Z,50.54
2018-10-16T03:20:30.507Z,49.39
2018-10-16T03:22:59.146Z,49.59
2018-10-16T03:25:27.836Z,50.16
2018-10-16T03:27:56.411Z,50.09
2018-10-16T03:30:25.195Z,50.18
2018-10-16T03:32:53.861Z,50.14
2018-10-16T03:35:22.466Z,49.27
2018-10-16T03:37:51.125Z,49.24
2018-10-16T03:40:19.685Z,49.47
2018-10-16T03:42:48.235Z,49.49
2018-10-16T03:45:16.798Z,49.12
2018-10-16T03:47:45.482Z,49.45
2018-10-16T03:50:14.013Z,49.94
2018-10-16T03:52:42.787Z,49.90
2018-10-16T03:55:11.389Z,49.96
2018-10-16T03:57:40.028Z,49.64
2018-10-16T04:00:09.553Z,49.35
2018-10-16T04:02:38.437Z,49.38
2018-10-16T04:05:07.488Z,49.85
2018-10-16T04:07:36.033Z,49.39
2018-10-16T04:10:04.631Z,49.05
2018-10-16T04:12:33.292Z,49.01
2018-10-16T04:15:01.869Z,49.33
2018-10-16T04:17:30.742Z,49.83
2018-10-16T04:19:59.486Z,49.52
2018-10-16T04:22:29.226Z,49.88
2018-10-16T04:24:57.915Z,49.67
2018-10-16T04:27:26.467Z,49.35
2018-10-16T04:29:55.054Z,49.53
2018-10-16T04:32:23.748Z,49.47
2018-10-16T04:34:52.391Z,49.54
2018-10-16T04:37:21.080Z,49.28
2018-10-16T04:39:49.667Z,49.85
2018-10-16T04:45:02.015Z,50.00
2018-10-16T04:47:30.703Z,50.20
2018-10-16T04:49:59.613Z,49.66
2018-10-16T04:52:28.330Z,49.66
2018-10-16T04:54:57.123Z,50.01
2018-10-16T04:57:25.766Z,49.46
2018-10-16T04:59:54.993Z,49.75
2018-10-16T05:02:23.650Z,49.48
2018-10-16T05:04:52.527Z,49.09
2018-10-16T05:07:21.251Z,49.86
2018-10-16T05:09:50.129Z,49.37
2018-10-16T05:12:18.763Z,49.37
2018-10-16T05:14:47.415Z,49.44
2018-10-16T05:17:16.061Z,49.11
2018-10-16T05:19:44.861Z,49.62
2018-10-16T05:22:13.512Z,49.07
2018-10-16T05:24:42.162Z,49.52
2018-10-16T05:27:10.848Z,48.95
2018-10-16T05:29:39.776Z,49.36
2018-10-16T05:32:08.516Z,49.82
2018-10-16T05:34:37.367Z,49.77
2018-10-16T05:37:06.154Z,49.24
2018-10-16T05:39:34.900Z,48.79
2018-10-16T05:42:03.588Z,49.07
2018-10-16T05:44:32.224Z,49.40
2018-10-16T05:47:01.006Z,49.77
2018-10-16T05:49:29.782Z,49.26
2018-10-16T05:51:58.659Z,49.58
2018-10-16T05:54:27.685Z,49.62
2018-10-16T05:56:56.712Z,49.96
2018-10-16T05:59:26.333Z,49.87
2018-10-16T06:01:55.177Z,49.63
2018-10-16T06:04:23.864Z,49.91
2018-10-16T06:06:52.612Z,50.02
2018-10-16T06:09:21.297Z,49.19
2018-10-16T06:11:50.175Z,49.48
2018-10-16T06:14:19.223Z,50.19
2018-10-16T06:16:48.016Z,50.18
2018-10-16T06:19:16.685Z,50.12
2018-10-16T06:21:45.379Z,49.45
2018-10-16T06:24:14.159Z,50.11
2018-10-16T06:26:46.110Z,49.58
2018-10-16T06:29:19.931Z,49.71
2018-10-16T06:31:48.730Z,49.08
2018-10-16T06:34:17.843Z,49.97
2018-10-16T06:36:46.682Z,49.43
2018-10-16T06:39:15.280Z,49.69
2018-10-16T06:41:44.057Z,49.21
2018-10-16T06:44:12.637Z,49.15
2018-10-16T06:46:41.511Z,49.16
2018-10-16T06:49:10.149Z,49.26
2018-10-16T06:51:38.770Z,48.71
2018-10-16T06:54:07.499Z,48.83
2018-10-16T06:56:36.105Z,48.27
2018-10-16T06:59:04.921Z,48.89
2018-10-16T07:01:33.580Z,48.28
2018-10-16T07:04:02.194Z,48.20
2018-10-16T07:06:30.943Z,48.82
2018-10-16T07:08:59.494Z,47.92
2018-10-16T07:11:28.165Z,48.03
2018-10-16T07:13:56.832Z,47.62
2018-10-16T07:16:26.027Z,47.01
2018-10-16T07:18:54.772Z,46.05
2018-10-16T07:21:23.446Z,45.43
2018-10-16T07:23:52.163Z,43.79
2018-10-16T07:26:20.753Z,42.43
2018-10-16T07:28:49.420Z,40.25
2018-10-16T07:31:18.052Z,37.49
2018-10-16T07:33:46.741Z,36.17
2018-10-16T07:36:15.393Z,35.82
2018-10-16T07:38:44.037Z,35.11
2018-10-16T07:41:12.753Z,34.37
2018-10-16T07:43:41.736Z,32.84
2018-10-16T07:46:10.452Z,32.10
2018-10-16T07:48:39.227Z,31.88
2018-10-16T07:51:07.827Z,29.74
2018-10-16T07:53:36.493Z,29.77
2018-10-16T07:56:05.395Z,29.07
2018-10-16T07:58:34.175Z,27.15
2018-10-16T08:01:03.158Z,26.84
2018-10-16T08:03:32.864Z,26.22
2018-10-16T08:06:02.420Z,25.54
2018-10-16T08:08:31.486Z,24.81
2018-10-16T08:11:01.712Z,24.41
2018-10-16T08:13:30.580Z,23.52
2018-10-16T08:15:59.272Z,22.46
2018-10-16T08:18:27.962Z,22.94
2018-10-16T08:20:56.684Z,22.51
2018-10-16T08:23:25.510Z,21.14
2018-10-16T08:25:54.319Z,21.30
2018-10-16T08:28:23.068Z,21.04
2018-10-16T08:30:52.152Z,20.66
2018-10-16T08:33:24.850Z,19.64
2018-10-16T08:35:54.025Z,19.19
2018-10-16T08:38:29.885Z,18.86
2018-10-16T08:40:59.082Z,18.98
2018-10-16T08:43:44.730Z,18.53
2018-10-16T08:46:24.308Z,17.85
2018-10-16T08:51:43.689Z,17.32
2018-10-16T09:03:14.454Z,15.94
2018-10-16T09:05:43.174Z,16.10
2018-10-16T09:08:11.837Z,15.21
2018-10-16T09:10:40.683Z,14.93
2018-10-16T09:13:09.325Z,14.27
2018-10-16T09:15:38.076Z,14.06
2018-10-16T09:18:07.002Z,13.62
2018-10-16T09:20:35.682Z,13.00
2018-10-16T09:23:04.573Z,13.14
2018-10-16T09:25:33.312Z,13.55
2018-10-16T09:28:02.023Z,13.92
2018-10-16T09:30:30.677Z,14.89
2018-10-16T09:32:59.428Z,15.79
2018-10-16T09:35:28.205Z,17.10
2018-10-16T09:37:56.808Z,18.09
2018-10-16T09:40:25.565Z,18.02
2018-10-16T09:42:54.256Z,18.84
2018-10-16T09:45:22.952Z,19.27
2018-10-16T09:47:51.758Z,18.04
2018-10-16T09:50:20.460Z,16.46
2018-10-16T09:52:49.095Z,15.51
2018-10-16T09:55:17.658Z,14.09
2018-10-16T09:57:46.553Z,13.12
2018-10-16T10:00:20.280Z,12.35
2018-10-16T10:02:50.418Z,11.89
2018-10-16T10:05:21.825Z,11.61
2018-10-16T10:07:50.557Z,10.74
2018-10-16T10:10:19.227Z,10.60
2018-10-16T10:12:48.213Z,10.30
2018-10-16T10:15:16.817Z,10.12
2018-10-16T10:17:45.521Z,10.90
2018-10-16T10:20:14.172Z,10.96
2018-10-16T10:22:42.862Z,10.65
2018-10-16T10:25:12.760Z,10.02
2018-10-16T10:27:46.090Z,9.62
2018-10-16T10:30:15.539Z,9.48
2018-10-16T10:32:49.755Z,9.34
2018-10-16T10:35:19.976Z,8.89
2018-10-16T10:37:53.228Z,8.35
2018-10-16T10:40:22.315Z,8.07
2018-10-16T10:42:59.195Z,8.50
2018-10-16T10:45:34.119Z,8.16
2018-10-16T10:48:03.637Z,8.09
2018-10-16T10:50:32.857Z,8.01
2018-10-16T10:53:02.679Z,8.33
2018-10-16T10:55:31.934Z,7.94
2018-10-16T10:58:08.689Z,8.45
2018-10-16T11:00:38.358Z,8.39
2018-10-16T11:03:08.000Z,7.97
2018-10-16T11:05:37.299Z,7.22
2018-10-16T11:08:06.482Z,7.61
2018-10-16T11:10:35.551Z,7.66
2018-10-16T11:13:05.409Z,7.06
2018-10-16T11:15:34.515Z,6.74
2018-10-16T11:18:03.413Z,7.26
2018-10-16T11:20:32.161Z,6.51
2018-10-16T11:23:01.559Z,6.25
2018-10-16T11:25:30.348Z,5.79
2018-10-16T11:28:01.786Z,5.75
2018-10-16T11:30:30.917Z,5.13
2018-10-16T11:32:59.749Z,4.87
2018-10-16T11:35:28.725Z,5.32
2018-10-16T11:37:57.400Z,4.34
2018-10-16T11:40:26.034Z,4.65
2018-10-16T11:42:54.720Z,5.00
2018-10-16T11:45:23.489Z,4.70
2018-10-16T11:47:52.136Z,4.73
2018-10-16T11:50:21.019Z,5.22
2018-10-16T11:52:50.667Z,5.22
2018-10-16T11:55:19.374Z,6.28
2018-10-16T11:57:48.076Z,6.42
2018-10-16T12:00:18.093Z,6.19
2018-10-16T12:02:47.492Z,6.58
2018-10-16T12:05:16.492Z,6.88
2018-10-16T12:07:45.637Z,7.39
2018-10-16T12:10:14.298Z,8.53
2018-10-16T12:12:42.931Z,8.64
2018-10-16T12:15:11.614Z,8.75
2018-10-16T12:17:45.394Z,10.20
2018-10-16T12:20:18.596Z,11.37
2018-10-16T12:22:48.140Z,12.34
2018-10-16T12:25:16.861Z,12.95
2018-10-16T12:27:45.391Z,14.13
2018-10-16T12:30:13.929Z,14.32
2018-10-16T12:32:43.566Z,15.14
2018-10-16T12:35:12.633Z,16.19
2018-10-16T12:37:41.464Z,17.38
2018-10-16T12:40:10.386Z,17.22
2018-10-16T12:42:39.067Z,18.38
2018-10-16T12:45:08.568Z,17.89
2018-10-16T12:47:37.190Z,19.11
2018-10-16T12:50:06.769Z,18.28
2018-10-16T12:52:35.379Z,18.56
2018-10-16T12:55:04.089Z,19.44
2018-10-16T12:57:39.360Z,19.82
2018-10-16T13:00:08.391Z,19.36
2018-10-16T13:02:37.447Z,20.18
2018-10-16T13:05:07.381Z,20.23
2018-10-16T13:07:37.678Z,20.49
2018-10-16T13:10:10.781Z,21.30
2018-10-16T13:12:39.472Z,20.91
2018-10-16T13:15:09.781Z,20.60
2018-10-16T13:17:38.377Z,21.56
2018-10-16T13:20:07.998Z,21.41
2018-10-16T13:22:36.751Z,21.81
2018-10-16T13:25:06.201Z,21.93
2018-10-16T13:27:35.018Z,22.20
2018-10-16T13:30:04.005Z,22.18
2018-10-16T13:32:32.999Z,21.94
2018-10-16T13:35:01.780Z,21.17
2018-10-16T13:37:30.917Z,22.06
2018-10-16T13:39:59.720Z,22.68
2018-10-16T13:42:28.473Z,22.05
2018-10-16T13:44:57.236Z,21.75
2018-10-16T13:47:26.377Z,21.41
2018-10-16T13:49:55.965Z,22.16
2018-10-16T13:52:24.885Z,22.48
2018-10-16T13:54:53.675Z,22.54
2018-10-16T13:57:22.631Z,22.36
2018-10-16T13:59:51.574Z,23.17
2018-10-16T14:02:20.526Z,22.54
2018-10-16T14:04:49.508Z,22.79
2018-10-16T14:07:18.195Z,23.01
2018-10-16T14:09:46.845Z,22.57
2018-10-16T14:12:15.555Z,22.90
2018-10-16T14:14:44.258Z,22.83
2018-10-16T14:17:12.845Z,23.24
2018-10-16T14:19:41.620Z,22.94
2018-10-16T14:22:10.673Z,23.05
2018-10-16T14:24:39.325Z,23.59
2018-10-16T14:27:08.011Z,23.88
2018-10-16T14:29:36.671Z,23.91
2018-10-16T14:32:05.545Z,24.29
2018-10-16T14:34:34.314Z,24.73
2018-10-16T14:37:02.882Z,24.86
2018-10-16T14:39:31.486Z,24.88
2018-10-16T14:42:00.171Z,24.88
2018-10-16T14:44:28.888Z,25.39
2018-10-16T14:46:57.989Z,25.36
2018-10-16T14:49:27.387Z,25.87
2018-10-16T14:51:56.592Z,25.90
2018-10-16T14:54:26.141Z,26.44
2018-10-16T14:56:55.074Z,26.38
2018-10-16T14:59:23.796Z,27.08
2018-10-16T15:01:53.397Z,27.01
2018-10-16T15:04:22.309Z,27.26
2018-10-16T15:06:51.161Z,27.98
2018-10-16T15:09:19.884Z,27.10
2018-10-16T15:11:48.731Z,27.45
2018-10-16T15:14:17.469Z,28.52
2018-10-16T15:16:46.234Z,28.48
2018-10-16T15:19:14.920Z,28.13
2018-10-16T15:21:43.577Z,28.06
2018-10-16T15:24:12.370Z,27.99
2018-10-16T15:26:41.040Z,28.23
2018-10-16T15:29:09.900Z,28.66
2018-10-16T15:31:38.689Z,29.07
2018-10-16T15:34:07.591Z,29.21
2018-10-16T15:36:36.481Z,29.06
2018-10-16T15:39:08.270Z,29.20
2018-10-16T15:41:37.182Z,29.63
2018-10-16T15:44:06.196Z,29.90
2018-10-16T15:46:34.961Z,29.85
2018-10-16T15:49:03.621Z,29.97
2018-10-16T15:51:32.528Z,30.09
2018-10-16T15:54:01.250Z,29.84
2018-10-16T15:56:30.522Z,30.32
2018-10-16T15:58:59.534Z,30.91
2018-10-16T16:01:28.705Z,31.42
2018-10-16T16:03:59.191Z,30.93
2018-10-16T16:06:28.226Z,31.30
2018-10-16T16:08:57.291Z,32.45
2018-10-16T16:11:26.115Z,32.34
2018-10-16T16:13:54.957Z,31.84
2018-10-16T16:16:24.806Z,32.28
2018-10-16T16:18:53.394Z,31.62
2018-10-16T16:21:22.621Z,32.79
2018-10-16T16:23:51.803Z,32.12
2018-10-16T16:26:20.828Z,32.75
2018-10-16T16:28:49.567Z,32.61
2018-10-16T16:31:18.287Z,33.35
2018-10-16T16:33:47.008Z,32.96
2018-10-16T16:36:15.734Z,33.02
2018-10-16T16:38:44.420Z,33.16
2018-10-16T16:41:13.791Z,33.97
2018-10-16T16:43:42.715Z,34.71
2018-10-16T16:46:11.675Z,34.79
2018-10-16T16:48:40.294Z,34.71
2018-10-16T16:51:09.183Z,34.90
2018-10-16T16:53:38.081Z,35.05
2018-10-16T16:56:06.922Z,35.15
2018-10-16T16:58:36.159Z,34.78
2018-10-16T17:01:05.110Z,34.72
2018-10-16T17:03:33.904Z,34.85
2018-10-16T17:06:02.552Z,35.61
2018-10-16T17:08:31.158Z,34.73
2018-10-16T17:11:00.034Z,34.85
2018-10-16T17:13:29.027Z,35.99
2018-10-16T17:15:57.824Z,35.37
2018-10-16T17:18:26.549Z,35.66
2018-10-16T17:20:55.360Z,36.62
2018-10-16T17:23:25.274Z,36.14
2018-10-16T17:25:54.360Z,37.07
2018-10-16T17:28:22.752Z,36.44
2018-10-16T17:30:51.855Z,36.41
2018-10-16T17:33:21.148Z,36.53
2018-10-16T17:35:50.124Z,36.35
2018-10-16T17:38:19.037Z,37.21
2018-10-16T17:40:47.831Z,37.52
2018-10-16T17:43:16.915Z,37.65
2018-10-16T17:45:47.364Z,37.74
2018-10-16T17:48:16.138Z,37.88
2018-10-16T17:50:45.184Z,37.30
2018-10-16T17:53:14.131Z,38.06
2018-10-16T17:55:43.101Z,38.04
2018-10-16T17:58:12.041Z,37.62
2018-10-16T18:00:43.690Z,37.90
2018-10-16T18:03:12.731Z,38.48
2018-10-16T18:05:41.713Z,38.67
2018-10-16T18:08:10.607Z,37.97
2018-10-16T18:10:39.414Z,38.38
2018-10-16T18:13:08.252Z,37.74
2018-10-16T18:15:37.004Z,37.94
2018-10-16T18:18:06.359Z,38.74
2018-10-16T18:20:36.701Z,38.64
2018-10-16T18:23:06.391Z,38.87
2018-10-16T18:25:35.126Z,38.49
2018-10-16T18:28:03.955Z,38.56
2018-10-16T18:30:32.718Z,39.45
2018-10-16T18:33:01.855Z,38.58
2018-10-16T18:35:31.561Z,39.35
2018-10-16T18:38:00.300Z,39.19
2018-10-16T18:40:30.639Z,40.02
2018-10-16T18:44:30.047Z,39.99
2018-10-16T18:46:59.402Z,40.76
2018-10-16T18:49:28.363Z,40.84
2018-10-16T18:51:59.357Z,41.14
2018-10-16T18:54:29.662Z,41.18
2018-10-16T18:56:59.175Z,40.96
2018-10-16T18:59:27.845Z,41.28
2018-10-16T19:01:56.521Z,40.58
2018-10-16T19:04:25.143Z,40.68
2018-10-16T19:06:53.780Z,40.80
2018-10-16T19:09:22.540Z,41.81
2018-10-16T19:11:52.207Z,41.54
2018-10-16T19:14:20.981Z,41.15
2018-10-16T19:16:50.271Z,41.24
2018-10-16T19:19:19.050Z,41.04
2018-10-16T19:21:47.801Z,42.10
2018-10-16T19:24:16.520Z,41.80
2018-10-16T19:26:45.532Z,41.76
2018-10-16T19:29:15.769Z,41.39
2018-10-16T19:31:44.559Z,41.52
2018-10-16T19:34:13.607Z,41.35
2018-10-16T19:36:42.486Z,41.32
2018-10-16T19:39:12.356Z,41.67
2018-10-16T19:41:41.464Z,42.39
2018-10-16T19:44:10.127Z,42.59
2018-10-16T19:46:38.791Z,41.90
2018-10-16T19:49:08.147Z,41.99
2018-10-16T19:51:37.059Z,42.57
2018-10-16T19:54:06.071Z,42.12
2018-10-16T19:56:34.789Z,42.84
2018-10-16T19:59:04.444Z,42.96
2018-10-16T20:01:33.226Z,42.99
2018-10-16T20:04:02.034Z,42.71
2018-10-16T20:06:30.646Z,42.53
2018-10-16T20:08:59.496Z,42.40
2018-10-16T20:11:28.295Z,43.32
2018-10-16T20:13:57.073Z,43.28
2018-10-16T20:16:25.723Z,43.25
2018-10-16T20:18:54.421Z,43.25
2018-10-16T20:21:23.242Z,43.40
2018-10-16T20:23:53.262Z,43.31
2018-10-16T20:26:21.879Z,43.63
2018-10-16T20:28:50.578Z,43.33
2018-10-16T20:31:19.282Z,43.63
2018-10-16T20:33:47.967Z,43.38
2018-10-16T20:36:16.871Z,43.56
2018-10-16T20:38:45.520Z,44.17
2018-10-16T20:41:14.087Z,43.50
2018-10-16T20:43:42.743Z,43.68
2018-10-16T20:46:11.444Z,43.90
2018-10-16T20:48:40.008Z,44.36
2018-10-16T20:51:08.751Z,43.52
2018-10-16T20:53:37.368Z,43.61
2018-10-16T20:56:06.567Z,43.95
2018-10-16T20:58:35.168Z,44.17
2018-10-16T21:01:03.765Z,44.61
2018-10-16T21:03:32.532Z,44.60
2018-10-16T21:06:01.578Z,44.75
2018-10-16T21:08:30.154Z,44.92
2018-10-16T21:10:59.103Z,44.96
2018-10-16T21:13:27.854Z,45.26
2018-10-16T21:15:56.882Z,44.62
2018-10-16T21:18:25.672Z,44.59
2018-10-16T21:20:55.151Z,44.84
2018-10-16T21:23:24.004Z,45.58
2018-10-16T21:25:52.610Z,45.65
2018-10-16T21:28:21.327Z,45.12
2018-10-16T21:30:49.993Z,45.43
2018-10-16T21:33:18.762Z,45.46
2018-10-16T21:35:47.335Z,45.96
2018-10-16T21:38:15.965Z,46.28
2018-10-16T21:40:44.578Z,45.69
2018-10-16T21:43:13.308Z,46.44
2018-10-16T21:45:42.139Z,46.35
2018-10-16T21:48:10.721Z,46.64
2018-10-16T21:50:39.338Z,46.35
2018-10-16T21:53:07.972Z,46.15
2018-10-16T21:55:36.506Z,46.67
2018-10-16T21:58:05.317Z,46.50
2018-10-16T22:00:39.925Z,47.02
2018-10-16T22:03:08.749Z,47.50
2018-10-16T22:05:37.507Z,46.90
2018-10-16T22:08:06.210Z,46.76
2018-10-16T22:10:35.851Z,47.38
2018-10-16T22:13:08.619Z,47.78
2018-10-16T22:15:37.238Z,47.86
2018-10-16T22:18:05.814Z,48.05
2018-10-16T22:20:34.507Z,48.14
2018-10-16T22:23:03.309Z,47.55
2018-10-16T22:25:31.937Z,48.65
2018-10-16T22:28:01.751Z,48.35
2018-10-16T22:30:30.383Z,47.78
2018-10-16T22:32:59.008Z,48.31
2018-10-16T22:35:27.652Z,48.02
2018-10-16T22:37:56.327Z,48.08
2018-10-16T22:40:24.995Z,48.79
2018-10-16T22:42:53.847Z,48.55
2018-10-16T22:45:22.546Z,48.22
2018-10-16T22:47:51.335Z,48.55
2018-10-16T22:50:20.002Z,48.51
2018-10-16T22:52:48.688Z,48.87
2018-10-16T22:55:17.566Z,49.33
2018-10-16T22:57:46.261Z,49.39
2018-10-16T23:00:17.787Z,48.80
2018-10-16T23:02:47.632Z,49.53
2018-10-16T23:05:16.542Z,49.23
2018-10-16T23:07:46.296Z,49.39
2018-10-16T23:10:15.408Z,49.65
2018-10-16T23:12:44.496Z,49.42
2018-10-16T23:15:13.118Z,49.74
2018-10-16T23:17:41.901Z,50.08
2018-10-16T23:20:11.960Z,49.31
2018-10-16T23:22:40.746Z,49.33
2018-10-16T23:25:09.545Z,49.33
2018-10-16T23:27:38.298Z,49.88
2018-10-16T23:30:07.462Z,49.46
2018-10-16T23:32:36.408Z,50.33
2018-10-16T23:35:05.362Z,50.37
2018-10-16T23:37:34.108Z,49.93
2018-10-16T23:40:02.735Z,50.34
2018-10-16T23:42:31.537Z,50.01
2018-10-16T23:45:00.513Z,50.03
2018-10-16T23:47:29.384Z,50.91
2018-10-16T23:49:58.126Z,50.22
2018-10-16T23:52:26.890Z,50.43
2018-10-16T23:54:55.768Z,50.58
2018-10-16T23:57:24.613Z,51.08
2018-10-16T23:59:53.464Z,50.87
